Time;durP1;ratioP1;P1;durP2;ratioP2;P2;SDS_P1;SDS_P2;PMS_P1;PMS_P2;Temp;Humidity;BMP_temperature;BMP_pressure;BME280_temperature;BME280_humidity;BME280_pressure;Samples;Min_cycle;Max_cycle;Signal;HPM_P1;HPM_P2
2022/09/04 00:02:15;;;;;;;1999.90;991.50;;;11.80;99.90;;;;;;4113552;28;20214;-77
2022/09/04 00:04:18;;;;;;;1999.90;999.43;;;11.80;99.90;;;;;;4114199;28;20198;-75
2022/09/04 00:06:25;;;;;;;1999.90;952.30;;;11.90;99.90;;;;;;4113985;28;20187;-75
2022/09/04 00:08:43;;;;;;;1999.90;999.90;;;11.90;99.90;;;;;;4114056;28;20175;-74
2022/09/04 00:11:26;;;;;;;1999.90;815.83;;;11.90;99.90;;;;;;4120553;28;20210;-75
2022/09/04 00:13:50;;;;;;;1999.90;999.90;;;11.80;99.90;;;;;;4113745;28;20207;-74
2022/09/04 00:16:18;;;;;;;1999.90;999.90;;;11.80;99.90;;;;;;4134980;28;20261;-74
2022/09/04 00:18:29;;;;;;;1999.90;999.90;;;11.70;99.90;;;;;;4115427;28;20238;-74
2022/09/04 00:20:49;;;;;;;1999.90;987.47;;;11.70;99.90;;;;;;4131516;28;20201;-74
2022/09/04 00:23:08;;;;;;;1999.90;999.90;;;11.70;99.90;;;;;;4132547;28;20965;-73
2022/09/04 00:25:13;;;;;;;1999.90;999.90;;;11.70;99.90;;;;;;4115546;28;20238;-75
2022/09/04 00:27:23;;;;;;;1999.90;902.40;;;11.70;99.90;;;;;;4131416;28;20190;-75
2022/09/04 00:29:32;;;;;;;1999.90;927.07;;;11.70;99.90;;;;;;4132806;28;20194;-74
2022/09/04 00:31:40;;;;;;;1999.90;956.03;;;11.60;99.90;;;;;;4115612;28;20195;-74
2022/09/04 00:33:50;;;;;;;1999.90;999.90;;;11.60;99.90;;;;;;4132383;28;20189;-75
2022/09/04 00:36:01;;;;;;;1999.90;777.13;;;11.60;99.90;;;;;;4132767;28;20236;-74
2022/09/04 00:38:32;;;;;;;1999.90;999.90;;;11.60;99.90;;;;;;4132707;28;20177;-74
2022/09/04 00:40:38;;;;;;;1999.90;845.23;;;11.60;99.90;;;;;;4115462;28;20185;-74
2022/09/04 00:42:57;;;;;;;1999.90;999.90;;;11.60;99.90;;;;;;4131918;28;20206;-75
2022/09/04 00:45:22;;;;;;;1999.90;918.10;;;11.60;99.90;;;;;;4132567;28;20241;-74
2022/09/04 00:47:50;;;;;;;1999.90;999.90;;;11.60;99.90;;;;;;4132874;28;20715;-74
2022/09/04 00:50:05;;;;;;;1999.90;820.00;;;11.60;99.90;;;;;;4115330;28;20198;-74
2022/09/04 00:52:25;;;;;;;1999.90;999.90;;;11.60;99.90;;;;;;4132174;28;20260;-75
2022/09/04 00:54:43;;;;;;;1999.90;766.83;;;11.50;99.90;;;;;;4132510;28;20182;-74
2022/09/04 00:56:53;;;;;;;1999.90;999.90;;;11.50;99.90;;;;;;4132383;28;20203;-74
2022/09/04 00:59:12;;;;;;;1999.90;870.23;;;11.60;99.90;;;;;;4114803;28;20210;-74
2022/09/04 01:01:20;;;;;;;1958.57;958.87;;;11.50;99.90;;;;;;4132490;28;20177;-74
2022/09/04 01:03:41;;;;;;;1999.90;826.17;;;11.50;99.90;;;;;;4131692;28;20243;-74
2022/09/04 01:05:47;;;;;;;1999.90;999.90;;;11.50;99.90;;;;;;4131989;28;20544;-74
2022/09/04 01:08:12;;;;;;;1999.90;999.90;;;11.50;99.90;;;;;;4115833;28;20183;-74
2022/09/04 01:10:51;;;;;;;1999.90;902.47;;;11.50;99.90;;;;;;4132137;28;20183;-74
2022/09/04 01:13:17;;;;;;;1999.90;973.57;;;11.40;99.90;;;;;;4131601;28;20202;-74
2022/09/04 01:15:28;;;;;;;1995.37;935.97;;;11.40;99.90;;;;;;4132126;28;20186;-75
2022/09/04 01:17:59;;;;;;;1999.90;999.90;;;11.40;99.90;;;;;;4132057;28;20637;-74
2022/09/04 01:20:18;;;;;;;1999.90;999.90;;;11.30;99.90;;;;;;4114695;28;20183;-74
2022/09/04 01:22:39;;;;;;;1999.90;977.60;;;11.30;99.90;;;;;;4131347;28;20209;-75
2022/09/04 01:25:04;;;;;;;1614.67;931.97;;;11.30;99.90;;;;;;4113445;28;20187;-74
2022/09/04 01:27:17;;;;;;;1999.90;999.90;;;11.30;99.90;;;;;;4114210;28;20238;-74
2022/09/04 01:29:42;;;;;;;1999.90;999.90;;;11.20;99.90;;;;;;4131374;28;20170;-74
2022/09/04 01:32:06;;;;;;;1999.90;981.83;;;11.20;99.90;;;;;;4131209;28;20183;-74
2022/09/04 01:34:26;;;;;;;1999.90;999.90;;;11.30;99.90;;;;;;4131494;28;20197;-74
2022/09/04 01:36:54;;;;;;;1999.90;999.90;;;11.20;99.90;;;;;;4131500;28;20649;-74
2022/09/04 01:38:57;;;;;;;1999.90;999.90;;;11.30;99.90;;;;;;4114062;28;20191;-74
2022/09/04 01:41:07;;;;;;;1999.90;999.90;;;11.20;99.90;;;;;;4131874;28;20178;-75
2022/09/04 01:43:19;;;;;;;1999.90;999.90;;;11.30;99.90;;;;;;4130867;28;20312;-74
2022/09/04 01:45:45;;;;;;;1999.90;999.90;;;11.30;99.90;;;;;;4114304;28;20183;-74
2022/09/04 01:47:50;;;;;;;1999.90;999.90;;;11.20;99.90;;;;;;4114018;28;20187;-74
2022/09/04 01:50:13;;;;;;;1999.90;993.57;;;11.20;99.90;;;;;;4131530;28;20290;-75
2022/09/04 01:52:35;;;;;;;1999.90;958.80;;;11.20;99.90;;;;;;4130748;28;20205;-74
2022/09/04 01:54:52;;;;;;;1999.90;999.90;;;11.20;99.90;;;;;;4113865;28;20190;-74
2022/09/04 01:57:04;;;;;;;1999.90;859.43;;;11.20;99.90;;;;;;4113725;28;20217;-74
2022/09/04 01:59:28;;;;;;;1999.90;999.90;;;11.10;99.90;;;;;;4131065;28;20163;-75
2022/09/04 02:01:37;;;;;;;1999.90;952.93;;;11.20;99.90;;;;;;4131262;28;20715;-74
2022/09/04 02:04:06;;;;;;;1999.90;995.73;;;11.10;99.90;;;;;;4125585;28;20635;-74
2022/09/04 02:06:37;;;;;;;1999.90;999.90;;;11.20;99.90;;;;;;4105291;28;20198;-74
2022/09/04 02:09:09;;;;;;;1671.80;994.20;;;11.10;99.90;;;;;;4131001;28;20260;-74
2022/09/04 02:11:17;;;;;;;1999.90;999.90;;;11.10;99.90;;;;;;4113798;28;20225;-74
2022/09/04 02:13:42;;;;;;;1698.83;845.50;;;11.10;99.90;;;;;;4130355;28;20210;-74
2022/09/04 02:16:09;;;;;;;1999.90;913.83;;;11.20;99.90;;;;;;4130995;28;20732;-74
2022/09/04 02:18:40;;;;;;;1999.90;965.23;;;11.20;99.90;;;;;;4130178;28;20237;-75
2022/09/04 02:20:51;;;;;;;1999.90;851.93;;;11.10;99.90;;;;;;4115598;28;20182;-74
2022/09/04 02:23:06;;;;;;;1999.90;999.90;;;11.10;99.90;;;;;;4130314;28;20443;-74
2022/09/04 02:25:26;;;;;;;1999.90;999.90;;;11.10;99.90;;;;;;4130872;28;20177;-74
2022/09/04 02:27:35;;;;;;;1999.90;957.07;;;11.10;99.90;;;;;;4131145;28;20182;-74
2022/09/04 02:29:53;;;;;;;1999.90;969.47;;;11.10;99.90;;;;;;4130758;28;20185;-74
2022/09/04 02:32:10;;;;;;;1999.90;999.90;;;11.10;99.90;;;;;;4130776;28;20526;-74
2022/09/04 02:34:43;;;;;;;1999.90;999.90;;;11.10;99.90;;;;;;4138431;28;20243;-74
2022/09/04 02:36:58;;;;;;;1999.90;979.97;;;11.10;99.90;;;;;;4146660;28;20201;-75
2022/09/04 02:39:18;;;;;;;1999.90;999.90;;;11.00;99.90;;;;;;4129858;28;20188;-75
2022/09/04 02:41:39;;;;;;;1701.07;999.13;;;10.90;99.90;;;;;;4147149;28;20170;-74
2022/09/04 02:44:00;;;;;;;1999.90;999.90;;;11.00;99.90;;;;;;4146339;28;20722;-74
2022/09/04 02:46:29;;;;;;;1999.90;985.97;;;10.90;99.90;;;;;;4147148;28;20246;-74
2022/09/04 02:49:01;;;;;;;1999.90;999.90;;;10.90;99.90;;;;;;4129235;28;20848;-74
2022/09/04 02:51:12;;;;;;;1999.90;999.90;;;10.80;99.90;;;;;;4146831;28;20224;-74
2022/09/04 02:53:28;;;;;;;1999.90;943.63;;;10.80;99.90;;;;;;4128884;28;20570;-74
2022/09/04 02:56:00;;;;;;;1999.90;999.90;;;10.80;99.90;;;;;;4146709;28;20205;-74
2022/09/04 02:58:21;;;;;;;1999.90;999.90;;;10.90;99.90;;;;;;4146508;28;20220;-74
2022/09/04 03:00:38;;;;;;;1999.90;999.90;;;10.90;99.90;;;;;;4146734;28;20189;-74
2022/09/04 03:02:57;;;;;;;1999.90;960.37;;;10.90;99.90;;;;;;4145997;28;20197;-74
2022/09/04 03:05:19;;;;;;;1999.90;998.97;;;11.00;99.90;;;;;;4129348;28;20589;-74
2022/09/04 03:07:36;;;;;;;1708.33;999.90;;;11.00;99.90;;;;;;4146996;28;20701;-74
2022/09/04 03:09:49;;;;;;;1999.90;999.90;;;10.90;99.90;;;;;;4129561;28;20186;-74
2022/09/04 03:11:59;;;;;;;1999.90;999.90;;;10.80;99.90;;;;;;4146062;28;20177;-74
2022/09/04 03:14:11;;;;;;;1775.33;999.90;;;10.80;99.90;;;;;;4146684;28;20204;-74
2022/09/04 03:16:23;;;;;;;1717.67;996.87;;;10.80;99.90;;;;;;4146802;28;20194;-74
2022/09/04 03:18:50;;;;;;;1999.90;999.90;;;10.70;99.90;;;;;;4147047;28;20505;-75
2022/09/04 03:21:13;;;;;;;1999.90;997.70;;;10.70;99.90;;;;;;4147049;28;20182;-74
2022/09/04 03:23:29;;;;;;;1627.20;919.87;;;10.70;99.90;;;;;;4146532;28;20201;-74
2022/09/04 03:26:01;;;;;;;1999.90;999.90;;;10.70;99.90;;;;;;4146474;28;20198;-74
2022/09/04 03:28:01;;;;;;;1999.90;999.90;;;10.70;99.90;;;;;;4146449;28;20189;-74
2022/09/04 03:30:08;;;;;;;1999.90;999.90;;;10.70;99.90;;;;;;4146718;28;20185;-74
2022/09/04 03:32:15;;;;;;;1999.90;999.90;;;10.70;99.90;;;;;;4145875;28;20228;-74
2022/09/04 03:34:40;;;;;;;1999.90;886.00;;;10.70;99.90;;;;;;4146692;28;20538;-74
2022/09/04 03:37:13;;;;;;;1999.90;937.70;;;10.70;99.90;;;;;;4146223;28;20248;-74
2022/09/04 03:39:50;;;;;;;1999.90;999.90;;;10.70;99.90;;;;;;4146472;28;20170;-74
2022/09/04 03:42:18;;;;;;;1862.30;999.90;;;10.70;99.90;;;;;;4145731;28;20169;-75
2022/09/04 03:44:44;;;;;;;1999.90;999.90;;;10.70;99.90;;;;;;4146418;28;20288;-74
2022/09/04 03:47:14;;;;;;;1999.90;999.90;;;10.70;99.90;;;;;;4146518;28;20177;-74
2022/09/04 03:49:28;;;;;;;1999.90;999.90;;;10.70;99.90;;;;;;4103842;28;20194;-74
2022/09/04 03:51:57;;;;;;;1907.67;999.90;;;10.70;99.90;;;;;;4132391;28;20194;-75
2022/09/04 03:54:24;;;;;;;1999.90;937.43;;;10.60;99.90;;;;;;4150073;28;20173;-74
2022/09/04 03:56:37;;;;;;;1999.90;828.13;;;10.60;99.90;;;;;;4149531;28;20204;-74
2022/09/04 03:59:01;;;;;;;1999.90;999.90;;;10.60;99.90;;;;;;4149620;28;20192;-74
2022/09/04 04:01:28;;;;;;;1999.90;884.10;;;10.60;99.90;;;;;;4149597;28;20162;-74
2022/09/04 04:03:47;;;;;;;1999.90;998.63;;;10.60;99.90;;;;;;4148668;28;20216;-74
2022/09/04 04:05:52;;;;;;;1999.90;964.50;;;10.60;99.90;;;;;;4120335;28;20609;-74
2022/09/04 04:07:53;;;;;;;1999.90;999.90;;;10.70;99.90;;;;;;4117138;28;20171;-74
2022/09/04 04:10:14;;;;;;;1999.90;936.80;;;10.80;99.90;;;;;;4117163;28;20211;-74
2022/09/04 04:12:41;;;;;;;1999.90;976.23;;;10.90;99.90;;;;;;4116408;28;20233;-74
2022/09/04 04:15:02;;;;;;;1999.90;999.90;;;10.90;99.90;;;;;;4116726;28;20571;-74
2022/09/04 04:17:26;;;;;;;1999.90;940.30;;;10.90;99.90;;;;;;4116768;28;20273;-74
2022/09/04 04:20:01;;;;;;;1999.90;999.90;;;10.90;99.90;;;;;;4099404;29;20184;-73
2022/09/04 04:22:43;;;;;;;1999.90;999.90;;;10.80;99.90;;;;;;4099745;28;20276;-74
2022/09/04 04:25:25;;;;;;;1999.90;999.90;;;10.80;99.90;;;;;;4140439;28;20174;-74
2022/09/04 04:27:54;;;;;;;1999.90;919.87;;;10.90;99.90;;;;;;4066506;29;20193;-74
2022/09/04 04:30:13;;;;;;;1999.90;999.90;;;10.90;99.90;;;;;;4122641;28;20210;-74
2022/09/04 04:32:30;;;;;;;1999.90;999.90;;;10.90;99.90;;;;;;4131954;28;20213;-74
2022/09/04 04:34:42;;;;;;;1999.90;999.90;;;10.90;99.90;;;;;;4132152;28;20699;-75
2022/09/04 04:37:02;;;;;;;1999.90;901.87;;;10.90;99.90;;;;;;4132286;28;20190;-75
2022/09/04 04:39:17;;;;;;;1632.73;999.90;;;10.90;99.90;;;;;;4132219;28;20207;-75
2022/09/04 04:42:02;;;;;;;1999.90;999.90;;;10.80;99.90;;;;;;4132289;28;20167;-75
2022/09/04 04:44:05;;;;;;;1999.90;999.90;;;10.70;99.90;;;;;;4132022;28;20656;-75
2022/09/04 04:46:18;;;;;;;1999.90;999.90;;;10.70;99.90;;;;;;4132109;28;20174;-75
2022/09/04 04:48:40;;;;;;;1999.90;999.90;;;10.70;99.90;;;;;;4132238;28;20159;-75
2022/09/04 04:50:58;;;;;;;1999.90;999.90;;;10.60;99.90;;;;;;4132070;28;20549;-75
2022/09/04 04:53:04;;;;;;;1999.90;999.90;;;10.60;99.90;;;;;;4131448;28;20206;-75
2022/09/04 04:55:21;;;;;;;1994.63;893.57;;;10.60;99.90;;;;;;4132259;28;20684;-75
2022/09/04 04:57:53;;;;;;;1999.90;970.07;;;10.60;99.90;;;;;;4132357;28;20695;-75
2022/09/04 05:00:18;;;;;;;1999.90;999.90;;;10.60;99.90;;;;;;4131834;28;20178;-74
2022/09/04 05:02:27;;;;;;;1439.80;999.30;;;10.60;99.90;;;;;;4131843;28;20605;-74
2022/09/04 05:04:39;;;;;;;1999.90;997.70;;;10.60;99.90;;;;;;4132639;28;20221;-74
2022/09/04 05:07:19;;;;;;;1999.90;999.87;;;10.60;99.90;;;;;;4132825;28;20262;-74
2022/09/04 05:09:46;;;;;;;1999.90;999.90;;;10.60;99.90;;;;;;4102916;28;20195;-74
2022/09/04 05:12:06;;;;;;;1999.90;994.83;;;10.60;99.90;;;;;;4132268;28;20178;-74
2022/09/04 05:14:23;;;;;;;1999.90;999.90;;;10.60;99.90;;;;;;4132865;28;20174;-74
2022/09/04 05:16:47;;;;;;;1999.90;999.90;;;10.70;99.90;;;;;;4132595;28;20557;-74
2022/09/04 05:19:39;;;;;;;1880.47;970.83;;;10.80;99.90;;;;;;4132813;28;20317;-74
2022/09/04 05:22:14;;;;;;;1999.90;742.03;;;10.90;99.90;;;;;;4083158;28;20265;-74
2022/09/04 05:24:43;;;;;;;1658.93;975.87;;;11.00;99.90;;;;;;4132803;28;20174;-74
2022/09/04 05:27:07;;;;;;;1999.90;999.90;;;11.00;99.90;;;;;;4132708;28;20166;-74
2022/09/04 05:29:27;;;;;;;1999.90;984.93;;;11.10;99.90;;;;;;4132234;28;20194;-74
2022/09/04 05:31:28;;;;;;;1999.90;999.90;;;11.10;99.90;;;;;;4131845;28;20194;-74
2022/09/04 05:33:55;;;;;;;1999.90;968.00;;;11.20;99.90;;;;;;4130772;28;20205;-74
2022/09/04 05:36:08;;;;;;;1999.90;999.90;;;11.30;99.90;;;;;;4131798;28;20577;-74
2022/09/04 05:38:37;;;;;;;1999.90;999.90;;;11.30;99.90;;;;;;4114014;28;20175;-74
2022/09/04 05:40:55;;;;;;;1999.90;999.90;;;11.40;99.90;;;;;;4131379;28;20179;-74
2022/09/04 05:43:03;;;;;;;1999.90;999.90;;;11.40;99.90;;;;;;4113403;28;20211;-74
2022/09/04 05:45:20;;;;;;;1999.90;893.73;;;11.50;99.90;;;;;;4131227;28;20235;-74
2022/09/04 05:47:42;;;;;;;1968.80;999.90;;;11.50;99.90;;;;;;4131338;28;20620;-74
2022/09/04 05:50:03;;;;;;;1999.90;999.90;;;11.60;99.90;;;;;;4113639;28;20731;-74
2022/09/04 05:52:34;;;;;;;1999.90;999.90;;;11.70;99.90;;;;;;4130484;28;20234;-74
2022/09/04 05:55:11;;;;;;;1999.90;996.70;;;11.60;99.90;;;;;;4131141;28;20170;-74
2022/09/04 05:57:35;;;;;;;1786.67;974.07;;;11.70;99.90;;;;;;4113358;28;20277;-74
2022/09/04 05:59:44;;;;;;;1999.90;999.90;;;11.60;99.90;;;;;;4131045;28;20182;-74
2022/09/04 06:02:20;;;;;;;1999.90;873.00;;;11.70;99.90;;;;;;4130863;28;20189;-74
2022/09/04 06:04:36;;;;;;;1999.90;921.87;;;11.70;99.90;;;;;;4131300;28;20277;-74
2022/09/04 06:07:04;;;;;;;1994.30;933.00;;;11.80;99.90;;;;;;4130958;28;20171;-75
2022/09/04 06:09:42;;;;;;;1999.90;704.53;;;11.80;99.90;;;;;;4131057;28;20170;-74
2022/09/04 06:11:57;;;;;;;1999.90;999.90;;;11.90;99.90;;;;;;4129682;28;20190;-74
2022/09/04 06:14:22;;;;;;;1999.90;682.10;;;12.00;99.90;;;;;;4130866;28;20178;-74
2022/09/04 06:16:52;;;;;;;1999.90;929.67;;;12.10;99.90;;;;;;4130942;28;20206;-74
2022/09/04 06:19:12;;;;;;;1999.90;927.97;;;12.10;99.90;;;;;;4114780;28;20179;-75
2022/09/04 06:21:52;;;;;;;1999.90;805.07;;;12.30;99.90;;;;;;4114604;28;20190;-74
2022/09/04 06:24:29;;;;;;;1999.90;656.10;;;12.30;99.90;;;;;;4114893;28;20159;-74
2022/09/04 06:27:19;;;;;;;1999.90;999.90;;;12.30;99.90;;;;;;4114536;28;20597;-75
2022/09/04 06:29:52;;;;;;;1999.90;999.90;;;12.40;99.90;;;;;;4114004;28;20190;-74
2022/09/04 06:31:59;;;;;;;1999.90;814.27;;;12.40;99.90;;;;;;4100201;28;20195;-74
2022/09/04 06:34:11;;;;;;;1999.90;999.90;;;12.40;99.90;;;;;;4130892;28;20823;-74
2022/09/04 06:36:48;;;;;;;1999.90;999.90;;;12.50;99.90;;;;;;4130538;28;20280;-74
2022/09/04 06:39:03;;;;;;;1999.90;686.70;;;12.60;99.90;;;;;;4130725;28;20912;-74
2022/09/04 06:41:24;;;;;;;1999.90;649.33;;;12.70;99.90;;;;;;4113356;28;20194;-74
2022/09/04 06:43:47;;;;;;;1999.90;999.90;;;12.80;99.90;;;;;;4130051;28;20206;-74
2022/09/04 06:46:03;;;;;;;1999.90;621.17;;;13.00;99.90;;;;;;4130991;28;20246;-74
2022/09/04 06:48:27;;;;;;;1999.90;999.90;;;13.00;99.90;;;;;;4130606;28;20273;-75
2022/09/04 06:50:39;;;;;;;1999.90;999.90;;;13.10;99.90;;;;;;4130462;28;20205;-74
2022/09/04 06:53:11;;;;;;;1864.97;766.60;;;13.20;99.90;;;;;;4129922;28;20284;-74
2022/09/04 06:55:24;;;;;;;1999.90;629.53;;;13.30;99.90;;;;;;4130801;28;20183;-75
2022/09/04 06:57:49;;;;;;;1999.90;678.83;;;13.30;99.90;;;;;;4113071;28;20206;-74
2022/09/04 07:00:00;;;;;;;1999.90;999.90;;;13.40;99.90;;;;;;4113098;28;20206;-73
2022/09/04 07:02:27;;;;;;;1999.90;789.60;;;13.50;99.90;;;;;;4129843;28;20309;-75
2022/09/04 07:05:15;;;;;;;1999.90;999.90;;;13.60;99.90;;;;;;4129655;28;20260;-75
2022/09/04 07:07:31;;;;;;;1999.90;822.97;;;13.80;99.90;;;;;;4103401;28;20202;-75
2022/09/04 07:09:59;;;;;;;1999.90;999.90;;;13.90;99.90;;;;;;4130299;28;20174;-75
2022/09/04 07:12:06;;;;;;;1999.90;999.90;;;13.90;99.90;;;;;;4121748;28;20221;-75
2022/09/04 07:14:15;;;;;;;1999.90;999.90;;;14.00;99.90;;;;;;4113217;28;20190;-75
2022/09/04 07:16:24;;;;;;;1999.90;999.90;;;14.10;99.90;;;;;;4130125;28;20209;-75
2022/09/04 07:18:46;;;;;;;1999.90;999.90;;;14.20;99.90;;;;;;4130256;28;20652;-75
2022/09/04 07:20:56;;;;;;;1999.90;999.90;;;14.30;99.90;;;;;;4130050;28;20166;-75
2022/09/04 07:23:26;;;;;;;1999.90;999.90;;;14.40;99.90;;;;;;4112382;28;20206;-71
2022/09/04 07:25:48;;;;;;;1999.90;999.90;;;14.50;99.90;;;;;;4130134;28;20174;-71
2022/09/04 07:28:13;;;;;;;1999.90;999.90;;;14.60;99.90;;;;;;4130348;28;20221;-71
2022/09/04 07:30:16;;;;;;;1999.90;999.90;;;14.70;99.90;;;;;;4125520;28;20204;-73
2022/09/04 07:32:28;;;;;;;1999.90;212.63;;;14.80;99.90;;;;;;4127355;28;20206;-75
2022/09/04 07:34:50;;;;;;;1999.90;591.30;;;15.00;99.90;;;;;;4129918;28;20186;-75
2022/09/04 07:37:25;;;;;;;1999.90;999.90;;;15.10;99.90;;;;;;4113879;28;20796;-73
2022/09/04 07:39:53;;;;;;;1999.90;999.90;;;15.30;99.90;;;;;;4118741;28;20177;-74
2022/09/04 07:42:12;;;;;;;1999.90;510.40;;;15.50;99.90;;;;;;4129493;28;20188;-73
2022/09/04 07:44:23;;;;;;;1999.90;771.63;;;15.80;99.90;;;;;;4129943;28;20249;-72
2022/09/04 07:46:34;;;;;;;1871.37;721.07;;;16.00;99.90;;;;;;4129679;28;20186;-73
2022/09/04 07:48:50;;;;;;;1999.90;999.90;;;16.10;99.90;;;;;;4126849;28;20304;-72
2022/09/04 07:50:53;;;;;;;1999.90;999.90;;;16.20;99.90;;;;;;4122375;28;20239;-73
2022/09/04 07:53:13;;;;;;;1999.90;999.90;;;16.50;99.90;;;;;;4128728;28;20831;-74
2022/09/04 07:55:22;;;;;;;1999.90;780.80;;;16.70;99.90;;;;;;4124657;28;20174;-74
2022/09/04 07:57:41;;;;;;;1999.90;999.90;;;16.90;99.90;;;;;;4129138;28;20229;-74
2022/09/04 08:00:01;;;;;;;1999.90;999.90;;;16.90;99.30;;;;;;4111782;28;20198;-72
2022/09/04 08:02:34;;;;;;;1999.90;955.70;;;17.00;98.20;;;;;;4128981;28;20223;-72
2022/09/04 08:05:06;;;;;;;1999.90;904.17;;;17.40;95.40;;;;;;4129208;28;20281;-74
2022/09/04 08:07:47;;;;;;;1999.90;837.83;;;17.50;94.40;;;;;;4098276;28;20231;-76
2022/09/04 08:10:32;;;;;;;1999.90;800.57;;;17.70;93.50;;;;;;4111776;28;20187;-75
2022/09/04 08:12:58;;;;;;;1999.90;674.70;;;17.90;91.40;;;;;;4105682;28;20214;-73
2022/09/04 08:15:20;;;;;;;1999.90;570.73;;;18.00;93.00;;;;;;4114224;28;20234;-74
2022/09/04 08:17:35;;;;;;;1999.90;637.10;;;18.10;91.30;;;;;;4129077;28;20190;-73
2022/09/04 08:19:40;;;;;;;1999.90;999.90;;;18.30;90.10;;;;;;4121312;28;20180;-72
2022/09/04 08:21:47;;;;;;;1999.90;999.90;;;18.20;92.30;;;;;;4128759;28;20642;-74
2022/09/04 08:24:11;;;;;;;1999.90;780.10;;;18.10;93.30;;;;;;4128843;28;20237;-74
2022/09/04 08:26:23;;;;;;;1999.90;909.10;;;18.20;91.30;;;;;;4112088;28;20607;-74
2022/09/04 08:28:33;;;;;;;1999.90;463.13;;;18.50;91.30;;;;;;4129954;28;20249;-72
2022/09/04 08:30:41;;;;;;;1999.90;999.90;;;18.80;92.40;;;;;;4129074;28;20273;-74
2022/09/04 08:32:50;;;;;;;1999.90;820.60;;;18.80;89.60;;;;;;4128824;28;20222;-76
2022/09/04 08:35:09;;;;;;;1999.90;846.53;;;19.10;85.20;;;;;;4114985;28;20534;-75
2022/09/04 08:37:27;;;;;;;1999.90;953.77;;;19.40;70.60;;;;;;4114549;28;20253;-75
2022/09/04 08:39:28;;;;;;;1999.90;653.13;;;19.60;70.50;;;;;;4109440;28;20171;-72
2022/09/04 08:42:04;;;;;;;1779.10;852.93;;;19.70;62.20;;;;;;4120595;28;20194;-71
2022/09/04 08:44:48;;;;;;;1999.90;753.53;;;20.00;63.40;;;;;;4108081;28;20278;-75
2022/09/04 08:47:50;;;;;;;1999.90;844.33;;;20.30;60.60;;;;;;4131749;28;20175;-76
2022/09/04 08:50:40;;;;;;;1926.33;800.77;;;20.50;64.40;;;;;;4123544;28;20182;-77
2022/09/04 08:52:53;;;;;;;1999.90;889.03;;;20.80;59.60;;;;;;4113498;28;20780;-76
2022/09/04 08:55:14;;;;;;;1898.53;824.63;;;20.90;57.50;;;;;;4114598;28;20666;-77
2022/09/04 08:58:04;;;;;;;1999.90;999.90;;;21.10;56.80;;;;;;4114032;28;20294;-77
2022/09/04 09:00:19;;;;;;;1529.17;643.60;;;21.80;56.10;;;;;;4131306;28;20171;-77
2022/09/04 09:03:16;;;;;;;1999.90;999.90;;;21.90;50.70;;;;;;4113362;28;20205;-76
2022/09/04 09:05:54;;;;;;;1999.90;821.47;;;21.90;52.60;;;;;;4118633;28;20190;-77
2022/09/04 09:08:20;;;;;;;1999.90;631.70;;;21.90;50.40;;;;;;4131273;28;20202;-77
2022/09/04 09:10:43;;;;;;;1999.90;999.90;;;21.40;52.20;;;;;;4114167;28;20183;-77
2022/09/04 09:13:13;;;;;;;1999.90;872.27;;;21.20;54.50;;;;;;4113830;28;20217;-77
2022/09/04 09:15:45;;;;;;;1999.90;932.23;;;21.10;55.20;;;;;;4117385;28;20167;-76
2022/09/04 09:18:19;;;;;;;1999.90;674.67;;;21.60;54.30;;;;;;4114669;28;20261;-77
2022/09/04 09:20:29;;;;;;;454.87;409.10;;;21.80;47.90;;;;;;4113920;28;20179;-78
2022/09/04 09:23:15;;;;;;;472.60;436.70;;;21.80;47.80;;;;;;4114667;28;20234;-77
2022/09/04 09:25:28;;;;;;;1995.13;687.50;;;22.00;45.70;;;;;;4101436;28;20207;-77
2022/09/04 09:28:01;;;;;;;709.53;576.23;;;22.30;44.60;;;;;;4130198;28;20605;-77
2022/09/04 09:30:19;;;;;;;1451.03;555.70;;;22.70;45.20;;;;;;4113836;28;20179;-72
2022/09/04 09:32:57;;;;;;;1232.40;648.17;;;23.10;47.20;;;;;;4117287;28;20285;-72
2022/09/04 09:35:40;;;;;;;1649.17;723.90;;;23.20;44.70;;;;;;4115926;28;20752;-72
2022/09/04 09:38:27;;;;;;;521.60;474.77;;;23.30;41.70;;;;;;4110843;28;20222;-72
2022/09/04 09:40:55;;;;;;;1999.90;900.63;;;23.60;41.50;;;;;;4114025;28;20608;-75
2022/09/04 09:44:18;;;;;;;1241.23;623.07;;;23.90;42.40;;;;;;4098314;28;20204;-73
2022/09/04 09:47:01;;;;;;;1920.83;480.00;;;24.20;41.20;;;;;;4064106;29;20259;-75
2022/09/04 09:49:20;;;;;;;1034.03;455.60;;;24.30;43.60;;;;;;4116592;28;20167;-74
2022/09/04 09:51:48;;;;;;;1375.43;513.60;;;24.40;42.50;;;;;;4113249;28;20632;-70
2022/09/04 09:54:16;;;;;;;1066.37;632.40;;;24.50;38.60;;;;;;4130571;28;20178;-71
2022/09/04 09:56:28;;;;;;;1052.73;665.03;;;24.50;38.60;;;;;;4113156;28;20241;-75
2022/09/04 09:58:47;;;;;;;1999.90;629.93;;;24.20;38.20;;;;;;4130301;28;20237;-74
2022/09/04 10:01:18;;;;;;;1999.90;781.67;;;24.30;39.40;;;;;;4122351;28;20183;-72
2022/09/04 10:04:05;;;;;;;1999.90;846.73;;;24.40;38.80;;;;;;4117202;28;20214;-74
2022/09/04 10:06:32;;;;;;;1152.07;805.70;;;24.40;39.70;;;;;;4130344;28;20186;-73
2022/09/04 10:08:50;;;;;;;1999.90;839.40;;;24.30;38.90;;;;;;4130481;28;20175;-75
2022/09/04 10:11:04;;;;;;;1999.90;658.43;;;25.20;35.50;;;;;;4114454;28;20626;-74
2022/09/04 10:13:44;;;;;;;1999.90;726.00;;;25.40;34.80;;;;;;4112419;28;20638;-74
2022/09/04 10:16:21;;;;;;;1065.17;675.33;;;24.90;35.20;;;;;;4130628;28;20264;-73
2022/09/04 10:19:01;;;;;;;1999.90;892.63;;;24.60;37.60;;;;;;4130176;28;20317;-72
2022/09/04 10:21:54;;;;;;;1999.90;987.03;;;25.90;36.60;;;;;;4099037;28;20168;-73
2022/09/04 10:24:32;;;;;;;1999.90;894.40;;;26.00;34.70;;;;;;4122738;28;20273;-75
2022/09/04 10:26:58;;;;;;;1999.90;999.90;;;25.60;36.00;;;;;;4130118;28;20181;-74
2022/09/04 10:29:27;;;;;;;1999.90;884.53;;;24.90;37.70;;;;;;4097762;28;20274;-74
2022/09/04 10:31:55;;;;;;;1999.90;999.90;;;23.90;39.40;;;;;;4129880;28;20257;-74
2022/09/04 10:34:14;;;;;;;1999.90;999.90;;;23.50;42.60;;;;;;4113536;28;20190;-74
2022/09/04 10:36:45;;;;;;;1999.90;999.27;;;23.90;41.40;;;;;;4112464;28;20868;-74
2022/09/04 10:41:37;;;;;;;1999.90;991.07;;;24.10;41.20;;;;;;4114987;28;20247;-72
2022/09/04 10:44:14;;;;;;;1999.90;993.50;;;24.30;41.20;;;;;;4105743;28;20811;-72
2022/09/04 10:46:20;;;;;;;1999.90;999.90;;;25.50;39.40;;;;;;4071645;28;20210;-75
2022/09/04 10:48:47;;;;;;;1999.90;779.83;;;24.90;39.60;;;;;;4112413;28;20194;-74
2022/09/04 10:51:36;;;;;;;1999.90;946.93;;;24.60;42.10;;;;;;4112615;28;20229;-72
2022/09/04 10:54:07;;;;;;;1999.90;999.90;;;24.40;39.00;;;;;;4119467;28;20212;-74
2022/09/04 10:56:25;;;;;;;1997.10;687.37;;;24.40;40.10;;;;;;4133382;28;20190;-72
2022/09/04 10:58:38;;;;;;;1871.03;737.70;;;26.20;36.00;;;;;;4115114;28;20282;-71
2022/09/04 11:01:19;;;;;;;1999.90;874.30;;;26.80;33.60;;;;;;4099716;28;20238;-73
2022/09/04 11:03:43;;;;;;;1999.90;800.33;;;25.60;33.70;;;;;;4117855;28;20298;-75
2022/09/04 11:06:27;;;;;;;1999.90;829.40;;;26.00;33.70;;;;;;4113489;28;20168;-72
2022/09/04 11:08:38;;;;;;;1999.90;999.90;;;26.70;32.70;;;;;;4130413;28;20186;-73
2022/09/04 11:10:56;;;;;;;1999.90;999.90;;;27.90;34.90;;;;;;4130652;28;20245;-76
2022/09/04 11:13:27;;;;;;;1999.90;999.90;;;29.00;32.80;;;;;;4115272;28;20206;-75
2022/09/04 11:16:17;;;;;;;1999.90;999.90;;;28.60;29.60;;;;;;4130602;28;20271;-74
2022/09/04 11:18:57;;;;;;;1999.90;999.90;;;28.90;30.20;;;;;;4097576;29;20192;-74
2022/09/04 11:21:01;;;;;;;1999.90;959.27;;;27.70;31.30;;;;;;4098137;29;20219;-77
2022/09/04 11:24:03;;;;;;;1999.90;999.90;;;27.30;30.90;;;;;;4129279;28;20214;-75
2022/09/04 11:26:12;;;;;;;1999.90;880.40;;;27.10;31.90;;;;;;4102507;28;20627;-73
2022/09/04 11:29:11;;;;;;;1999.90;999.90;;;27.70;30.80;;;;;;4130355;28;20174;-74
2022/09/04 11:31:30;;;;;;;1999.90;999.90;;;27.30;30.00;;;;;;4117747;28;20233;-76
2022/09/04 11:34:21;;;;;;;1999.90;965.73;;;27.00;31.00;;;;;;4114358;28;20234;-77
2022/09/04 11:36:44;;;;;;;1999.90;999.90;;;27.40;32.60;;;;;;4117136;28;20206;-78
2022/09/04 11:39:31;;;;;;;1999.90;999.90;;;28.00;32.20;;;;;;4130607;28;20273;-76
2022/09/04 11:42:02;;;;;;;1999.90;999.90;;;27.60;32.50;;;;;;4103889;28;20183;-77